Time;durP1;ratioP1;P1;durP2;ratioP2;P2;SDS_P1;SDS_P2;PMS_P1;PMS_P2;Temp;Humidity;BMP_temperature;BMP_pressure;BME280_temperature;BME280_humidity;BME280_pressure;Samples;Min_cycle;Max_cycle;Signal;HPM_P1;HPM_P2
2023/05/11 00:01:51;;;;;;;;;;;12.40;70.20;;;;;;4150765;28;19925;-83
2023/05/11 00:03:52;;;;;;;;;;;12.30;70.10;;;;;;4149764;28;20404;-84
2023/05/11 00:05:52;;;;;;;;;;;12.40;70.20;;;;;;4169537;28;19917;-85
2023/05/11 00:07:53;;;;;;;;;;;12.40;70.20;;;;;;4152033;28;19914;-84
2023/05/11 00:10:14;;;;;;;;;;;12.30;70.90;;;;;;4166163;28;19992;-84
2023/05/11 00:12:35;;;;;;;;;;;12.20;70.00;;;;;;4154296;28;20026;-83
2023/05/11 00:14:55;;;;;;;;;;;12.30;70.10;;;;;;4171194;28;19920;-84
2023/05/11 00:17:17;;;;;;;;;;;12.20;70.10;;;;;;4167267;28;19917;-83
2023/05/11 00:19:38;;;;;;;;;;;12.20;70.10;;;;;;4156735;28;19928;-84
2023/05/11 00:21:58;;;;;;;;;;;12.20;70.20;;;;;;4163616;28;19924;-84
2023/05/11 00:24:19;;;;;;;;;;;12.20;70.30;;;;;;4167087;28;19913;-85
2023/05/11 00:26:40;;;;;;;;;;;12.20;70.30;;;;;;4156590;28;19916;-83
2023/05/11 00:29:00;;;;;;;;;;;12.10;70.40;;;;;;4167116;28;19963;-83
2023/05/11 00:31:01;;;;;;;;;;;12.10;70.50;;;;;;4167182;28;19917;-84
2023/05/11 00:33:04;;;;;;;;;;;12.10;70.50;;;;;;4149040;28;19909;-85
2023/05/11 00:35:05;;;;;;;;;;;12.20;70.60;;;;;;4137253;28;19979;-84
2023/05/11 00:37:06;;;;;;;;;;;12.10;71.30;;;;;;4147638;28;19937;-84
2023/05/11 00:39:07;;;;;;;;;;;12.20;70.50;;;;;;4151973;28;20008;-84
2023/05/11 00:41:08;;;;;;;;;;;12.20;70.50;;;;;;4137009;28;19921;-84
2023/05/11 00:43:29;;;;;;;;;;;12.20;70.70;;;;;;4169088;28;19917;-84
2023/05/11 00:45:32;;;;;;;;;;;12.10;70.40;;;;;;4151777;28;20584;-84
2023/05/11 00:47:33;;;;;;;;;;;12.20;70.50;;;;;;4169650;28;20382;-84
2023/05/11 00:49:34;;;;;;;;;;;12.10;70.60;;;;;;4167272;28;19913;-84
2023/05/11 00:51:35;;;;;;;;;;;12.10;70.50;;;;;;4147229;28;19955;-84
2023/05/11 00:53:37;;;;;;;;;;;12.10;70.50;;;;;;4149794;28;19989;-83
2023/05/11 00:55:47;;;;;;;;;;;12.10;70.50;;;;;;4141099;28;19965;-84
2023/05/11 00:58:07;;;;;;;;;;;12.10;70.60;;;;;;4171825;28;19925;-83
2023/05/11 01:00:28;;;;;;;;;;;12.00;70.50;;;;;;4170341;28;19992;-84
2023/05/11 01:02:32;;;;;;;;;;;12.00;70.50;;;;;;4172356;28;20098;-84
2023/05/11 01:04:56;;;;;;;;;;;12.00;70.60;;;;;;4157655;28;19967;-83
2023/05/11 01:07:02;;;;;;;;;;;12.00;70.60;;;;;;4173646;28;19917;-84
2023/05/11 01:09:08;;;;;;;;;;;12.00;70.50;;;;;;4155856;28;19917;-84
2023/05/11 01:11:22;;;;;;;;;;;11.90;70.60;;;;;;4136514;28;19917;-84
2023/05/11 01:13:30;;;;;;;;;;;11.90;70.70;;;;;;4156461;28;19933;-83
2023/05/11 01:15:35;;;;;;;;;;;12.00;70.70;;;;;;4170586;28;20283;-83
2023/05/11 01:17:43;;;;;;;;;;;11.90;70.70;;;;;;4168460;28;19913;-83
2023/05/11 01:19:47;;;;;;;;;;;11.90;70.70;;;;;;4172135;28;20003;-83
2023/05/11 01:21:52;;;;;;;;;;;11.90;70.80;;;;;;4170420;28;19974;-82
2023/05/11 01:24:12;;;;;;;;;;;11.90;70.80;;;;;;4171391;28;19966;-83
2023/05/11 01:26:34;;;;;;;;;;;11.90;70.80;;;;;;4172444;28;19963;-84
2023/05/11 01:28:55;;;;;;;;;;;11.90;70.80;;;;;;4154846;28;19920;-84
2023/05/11 01:31:16;;;;;;;;;;;11.90;70.80;;;;;;4171178;28;20220;-84
2023/05/11 01:33:39;;;;;;;;;;;11.90;70.80;;;;;;4161225;28;19924;-84
2023/05/11 01:36:03;;;;;;;;;;;11.90;70.80;;;;;;4167955;28;19917;-83
2023/05/11 01:38:25;;;;;;;;;;;11.90;70.90;;;;;;4158756;28;19928;-83
2023/05/11 01:40:50;;;;;;;;;;;11.90;70.80;;;;;;4169622;28;19919;-84
2023/05/11 01:43:12;;;;;;;;;;;11.80;70.80;;;;;;4173115;28;19956;-84
2023/05/11 01:45:35;;;;;;;;;;;11.80;70.90;;;;;;4168871;28;19917;-83
2023/05/11 01:47:56;;;;;;;;;;;11.80;70.90;;;;;;4165449;28;19917;-84
2023/05/11 01:49:57;;;;;;;;;;;11.80;71.00;;;;;;4153136;28;20073;-84
2023/05/11 01:52:00;;;;;;;;;;;11.80;71.00;;;;;;4140207;28;20820;-83
2023/05/11 01:54:01;;;;;;;;;;;11.80;70.90;;;;;;4165702;28;20051;-84
2023/05/11 01:56:02;;;;;;;;;;;11.80;71.00;;;;;;4171734;28;20116;-83
2023/05/11 01:58:05;;;;;;;;;;;11.70;71.00;;;;;;4155848;28;19924;-83
2023/05/11 02:00:26;;;;;;;;;;;11.70;71.20;;;;;;4173785;28;19921;-83
2023/05/11 02:02:47;;;;;;;;;;;11.70;71.20;;;;;;4172000;28;19963;-83
2023/05/11 02:05:09;;;;;;;;;;;11.70;71.20;;;;;;4167877;28;19963;-84
2023/05/11 02:07:30;;;;;;;;;;;11.70;71.40;;;;;;4159962;28;19921;-84
2023/05/11 02:09:54;;;;;;;;;;;11.60;71.50;;;;;;4170537;28;20032;-83
2023/05/11 02:12:16;;;;;;;;;;;11.60;71.70;;;;;;4158471;28;19924;-84
2023/05/11 02:14:38;;;;;;;;;;;11.70;71.80;;;;;;4157468;28;19925;-83
2023/05/11 02:16:59;;;;;;;;;;;11.60;71.80;;;;;;4156938;28;20002;-83
2023/05/11 02:19:30;;;;;;;;;;;11.70;71.70;;;;;;4167841;28;19920;-84
2023/05/11 02:21:34;;;;;;;;;;;11.60;72.50;;;;;;4136365;28;19921;-84
2023/05/11 02:23:35;;;;;;;;;;;11.60;71.70;;;;;;4151016;28;22832;-84
2023/05/11 02:25:37;;;;;;;;;;;11.50;71.70;;;;;;4168252;28;19920;-83
2023/05/11 02:27:38;;;;;;;;;;;11.60;71.80;;;;;;4141172;28;20000;-84
2023/05/11 02:29:58;;;;;;;;;;;11.50;71.90;;;;;;4165350;28;20275;-84
2023/05/11 02:32:21;;;;;;;;;;;11.50;72.00;;;;;;4158970;28;19963;-84
2023/05/11 02:34:43;;;;;;;;;;;11.50;72.00;;;;;;4158466;28;19963;-84
2023/05/11 02:37:09;;;;;;;;;;;11.50;72.10;;;;;;4169267;28;20012;-84
2023/05/11 02:39:12;;;;;;;;;;;11.50;72.00;;;;;;4138788;28;19921;-83
2023/05/11 02:41:36;;;;;;;;;;;11.50;72.00;;;;;;4170590;28;19912;-83
2023/05/11 02:44:00;;;;;;;;;;;11.50;72.10;;;;;;4160227;28;20655;-84
2023/05/11 02:46:22;;;;;;;;;;;11.50;72.30;;;;;;4168171;28;19909;-83
2023/05/11 02:48:45;;;;;;;;;;;11.40;72.10;;;;;;4168748;28;19921;-84
2023/05/11 02:51:07;;;;;;;;;;;11.50;72.10;;;;;;4158044;28;19910;-84
2023/05/11 02:53:28;;;;;;;;;;;11.40;71.90;;;;;;4160414;28;19932;-84
2023/05/11 02:55:50;;;;;;;;;;;11.40;72.00;;;;;;4170460;28;19948;-84
2023/05/11 02:58:10;;;;;;;;;;;11.40;71.80;;;;;;4155553;28;20434;-84
2023/05/11 03:00:31;;;;;;;;;;;11.40;72.00;;;;;;4159872;28;19913;-83
2023/05/11 03:02:40;;;;;;;;;;;11.50;72.20;;;;;;4168424;28;20432;-83
2023/05/11 03:04:41;;;;;;;;;;;11.30;72.20;;;;;;4155567;28;19913;-84
2023/05/11 03:06:44;;;;;;;;;;;11.30;72.00;;;;;;4156523;28;19999;-84
2023/05/11 03:08:51;;;;;;;;;;;11.30;72.10;;;;;;4137601;28;20402;-84
2023/05/11 03:10:52;;;;;;;;;;;11.30;72.20;;;;;;4152362;28;19913;-84
2023/05/11 03:12:52;;;;;;;;;;;11.30;72.30;;;;;;4152484;28;19921;-84
2023/05/11 03:15:02;;;;;;;;;;;11.30;72.50;;;;;;4153707;28;20004;-83
2023/05/11 03:17:24;;;;;;;;;;;11.20;72.60;;;;;;4170884;28;20420;-83
2023/05/11 03:19:26;;;;;;;;;;;11.20;72.60;;;;;;4166739;28;19909;-83
2023/05/11 03:21:49;;;;;;;;;;;11.20;72.60;;;;;;4153231;28;19972;-83
2023/05/11 03:24:10;;;;;;;;;;;11.20;72.50;;;;;;4157252;28;19952;-83
2023/05/11 03:26:32;;;;;;;;;;;11.20;72.70;;;;;;4165252;28;19916;-83
2023/05/11 03:28:53;;;;;;;;;;;11.20;72.80;;;;;;4169116;28;19913;-83
2023/05/11 03:31:14;;;;;;;;;;;11.20;72.80;;;;;;4169095;28;19923;-83
2023/05/11 03:33:40;;;;;;;;;;;11.20;73.00;;;;;;4155333;28;19920;-83
2023/05/11 03:36:04;;;;;;;;;;;11.20;73.00;;;;;;4157666;28;19917;-83
2023/05/11 03:38:22;;;;;;;;;;;11.20;72.90;;;;;;4153980;28;19917;-83
2023/05/11 03:40:49;;;;;;;;;;;11.20;72.90;;;;;;4171829;28;20023;-84
2023/05/11 03:43:10;;;;;;;;;;;11.10;73.00;;;;;;4149820;28;20470;-83
2023/05/11 03:45:31;;;;;;;;;;;11.20;73.10;;;;;;4169524;28;19921;-83
2023/05/11 03:47:34;;;;;;;;;;;11.20;73.10;;;;;;4137298;28;19917;-84
2023/05/11 03:49:55;;;;;;;;;;;11.10;73.10;;;;;;4157839;28;19913;-83
2023/05/11 03:52:16;;;;;;;;;;;11.10;73.20;;;;;;4158528;28;19919;-84
2023/05/11 03:54:37;;;;;;;;;;;11.10;73.00;;;;;;4166882;28;19920;-85
2023/05/11 03:56:57;;;;;;;;;;;11.10;73.20;;;;;;4167553;28;19917;-83
2023/05/11 03:59:18;;;;;;;;;;;11.10;73.20;;;;;;4168960;28;19924;-83
2023/05/11 04:01:39;;;;;;;;;;;11.10;73.30;;;;;;4157168;28;19917;-83
2023/05/11 04:03:59;;;;;;;;;;;11.10;73.30;;;;;;4156072;28;19917;-83
2023/05/11 04:06:20;;;;;;;;;;;11.10;73.30;;;;;;4155062;28;20418;-84
2023/05/11 04:08:41;;;;;;;;;;;11.10;73.20;;;;;;4165494;28;19923;-84
2023/05/11 04:10:45;;;;;;;;;;;11.20;74.00;;;;;;4152878;28;19999;-83
2023/05/11 04:12:46;;;;;;;;;;;11.10;73.30;;;;;;4153114;28;19925;-83
2023/05/11 04:14:47;;;;;;;;;;;11.10;73.60;;;;;;4136956;28;19973;-83
2023/05/11 04:16:48;;;;;;;;;;;11.10;73.70;;;;;;4150046;28;19990;-83
2023/05/11 04:18:49;;;;;;;;;;;11.10;73.60;;;;;;4132731;28;19925;-83
2023/05/11 04:20:53;;;;;;;;;;;11.00;73.70;;;;;;4152836;28;19921;-84
2023/05/11 04:22:53;;;;;;;;;;;11.00;73.70;;;;;;4135658;28;19920;-84
2023/05/11 04:24:56;;;;;;;;;;;11.10;73.60;;;;;;4151153;28;19920;-82
2023/05/11 04:27:16;;;;;;;;;;;11.10;73.70;;;;;;4164656;28;20012;-84
2023/05/11 04:29:37;;;;;;;;;;;11.10;73.80;;;;;;4168300;28;19964;-83
2023/05/11 04:31:57;;;;;;;;;;;11.10;73.70;;;;;;4165919;28;20012;-83
2023/05/11 04:34:18;;;;;;;;;;;11.10;73.70;;;;;;4166076;28;19917;-83
2023/05/11 04:36:39;;;;;;;;;;;11.10;73.80;;;;;;4148953;28;19921;-83
2023/05/11 04:38:59;;;;;;;;;;;11.10;73.80;;;;;;4151165;28;19929;-83
2023/05/11 04:41:21;;;;;;;;;;;11.00;73.80;;;;;;4163815;28;19921;-84
2023/05/11 04:43:43;;;;;;;;;;;11.00;73.90;;;;;;4168708;28;20127;-84
2023/05/11 04:46:04;;;;;;;;;;;11.00;73.90;;;;;;4167449;28;19959;-84
2023/05/11 04:48:27;;;;;;;;;;;11.00;74.10;;;;;;4152037;28;19921;-82
2023/05/11 04:50:52;;;;;;;;;;;11.10;74.30;;;;;;4163593;28;19931;-83
2023/05/11 04:53:13;;;;;;;;;;;11.00;74.10;;;;;;4170068;28;19917;-84
2023/05/11 04:55:13;;;;;;;;;;;11.10;74.40;;;;;;4158612;28;19921;-83
2023/05/11 04:57:14;;;;;;;;;;;11.00;74.40;;;;;;4167389;28;19921;-83
2023/05/11 04:59:15;;;;;;;;;;;11.10;74.50;;;;;;4137238;28;19921;-84
2023/05/11 05:01:15;;;;;;;;;;;11.00;74.40;;;;;;4158077;28;20350;-84
2023/05/11 05:03:36;;;;;;;;;;;11.10;74.60;;;;;;4167789;28;19913;-83
2023/05/11 05:05:57;;;;;;;;;;;11.00;74.40;;;;;;4155126;28;20079;-85
2023/05/11 05:08:17;;;;;;;;;;;11.00;74.10;;;;;;4167972;28;19921;-83
2023/05/11 05:10:18;;;;;;;;;;;11.10;73.90;;;;;;4158857;28;20016;-83
2023/05/11 05:12:26;;;;;;;;;;;11.00;73.80;;;;;;4148462;28;19939;-83
2023/05/11 05:14:46;;;;;;;;;;;11.00;73.90;;;;;;4164849;28;19917;-84
2023/05/11 05:17:07;;;;;;;;;;;11.10;73.70;;;;;;4178295;28;19989;-86
2023/05/11 05:19:28;;;;;;;;;;;11.10;73.80;;;;;;4169372;28;19924;-83
2023/05/11 05:21:48;;;;;;;;;;;11.10;73.90;;;;;;4176289;28;19905;-84
2023/05/11 05:24:10;;;;;;;;;;;11.10;73.80;;;;;;4180785;28;19900;-83
2023/05/11 05:26:31;;;;;;;;;;;11.10;74.10;;;;;;4180800;28;19916;-83
2023/05/11 05:28:52;;;;;;;;;;;11.10;74.20;;;;;;4160948;28;19921;-83
2023/05/11 05:31:12;;;;;;;;;;;11.10;74.30;;;;;;4169242;28;19913;-84
2023/05/11 05:33:36;;;;;;;;;;;11.10;74.30;;;;;;4170490;28;19962;-84
2023/05/11 05:35:57;;;;;;;;;;;11.00;74.20;;;;;;4169850;28;19913;-84
2023/05/11 05:38:04;;;;;;;;;;;11.10;74.30;;;;;;4152271;28;19913;-83
2023/05/11 05:40:05;;;;;;;;;;;11.10;74.30;;;;;;4155313;28;19920;-83
2023/05/11 05:42:06;;;;;;;;;;;11.10;74.20;;;;;;4142820;28;19957;-83
2023/05/11 05:44:26;;;;;;;;;;;11.20;74.30;;;;;;4171661;28;20064;-83
2023/05/11 05:46:27;;;;;;;;;;;11.20;74.30;;;;;;4157598;28;20012;-84
2023/05/11 05:48:47;;;;;;;;;;;11.10;74.30;;;;;;4173128;28;19921;-83
2023/05/11 05:51:08;;;;;;;;;;;11.10;74.10;;;;;;4173310;28;19920;-83
2023/05/11 05:53:13;;;;;;;;;;;11.20;74.20;;;;;;4158318;28;20180;-84
2023/05/11 05:55:36;;;;;;;;;;;11.30;74.30;;;;;;4163780;28;19953;-84
2023/05/11 05:57:57;;;;;;;;;;;11.30;74.50;;;;;;4179723;28;19933;-83
2023/05/11 06:00:17;;;;;;;;;;;11.30;74.50;;;;;;4172419;28;19921;-83
2023/05/11 06:02:38;;;;;;;;;;;11.30;74.30;;;;;;4173046;28;19921;-83
2023/05/11 06:04:59;;;;;;;;;;;11.30;74.20;;;;;;4171240;28;19936;-83
2023/05/11 06:07:19;;;;;;;;;;;11.40;74.20;;;;;;4160005;28;19959;-83
2023/05/11 06:09:40;;;;;;;;;;;11.40;74.50;;;;;;4160012;28;19925;-83
2023/05/11 06:12:01;;;;;;;;;;;11.20;74.50;;;;;;4160260;28;19936;-83
2023/05/11 06:14:21;;;;;;;;;;;11.30;74.60;;;;;;4171783;28;19946;-83
2023/05/11 06:16:42;;;;;;;;;;;11.40;74.40;;;;;;4172893;28;20023;-84
2023/05/11 06:19:02;;;;;;;;;;;11.40;74.50;;;;;;4160423;28;19956;-83
2023/05/11 06:21:23;;;;;;;;;;;11.40;74.30;;;;;;4159894;28;19969;-83
2023/05/11 06:23:44;;;;;;;;;;;11.50;74.50;;;;;;4179948;28;19917;-83
2023/05/11 06:26:04;;;;;;;;;;;11.50;74.60;;;;;;4180502;28;19908;-83
2023/05/11 06:28:25;;;;;;;;;;;11.60;74.60;;;;;;4192971;28;19960;-83
2023/05/11 06:30:46;;;;;;;;;;;11.50;74.60;;;;;;4183049;28;19902;-82
2023/05/11 06:32:46;;;;;;;;;;;11.50;74.50;;;;;;4194105;28;19911;-84
2023/05/11 06:34:47;;;;;;;;;;;11.50;74.40;;;;;;4175804;28;19960;-83
2023/05/11 06:37:07;;;;;;;;;;;11.60;74.50;;;;;;4168016;28;19918;-83
2023/05/11 06:39:28;;;;;;;;;;;11.70;74.40;;;;;;4178087;28;19978;-82
2023/05/11 06:41:50;;;;;;;;;;;11.60;74.30;;;;;;4170442;28;19921;-82
2023/05/11 06:44:11;;;;;;;;;;;11.60;74.30;;;;;;4172202;28;20482;-83
2023/05/11 06:46:32;;;;;;;;;;;11.70;74.20;;;;;;4161766;28;20452;-83
2023/05/11 06:48:53;;;;;;;;;;;11.70;74.20;;;;;;4174334;28;20656;-83
2023/05/11 06:51:13;;;;;;;;;;;11.60;74.10;;;;;;4176503;28;19976;-83
2023/05/11 06:53:34;;;;;;;;;;;11.60;73.80;;;;;;4163773;28;19914;-83
2023/05/11 06:55:55;;;;;;;;;;;11.70;73.90;;;;;;4160774;28;19921;-83
2023/05/11 06:57:55;;;;;;;;;;;11.70;74.20;;;;;;4169836;28;19921;-83
2023/05/11 06:59:56;;;;;;;;;;;11.70;74.20;;;;;;4157305;28;19913;-83
2023/05/11 07:02:18;;;;;;;;;;;11.70;74.40;;;;;;4161272;28;19913;-83
2023/05/11 07:04:39;;;;;;;;;;;11.70;74.30;;;;;;4152785;28;19921;-83
2023/05/11 07:06:59;;;;;;;;;;;11.80;74.90;;;;;;4159796;28;20497;-83
2023/05/11 07:09:20;;;;;;;;;;;11.80;74.10;;;;;;4169634;28;19917;-82
2023/05/11 07:11:40;;;;;;;;;;;11.80;74.00;;;;;;4173106;28;19912;-83
2023/05/11 07:14:01;;;;;;;;;;;11.90;74.30;;;;;;4156757;28;20099;-83
2023/05/11 07:16:02;;;;;;;;;;;11.80;74.30;;;;;;4144523;28;19914;-83
2023/05/11 07:18:03;;;;;;;;;;;11.80;74.20;;;;;;4144392;28;19924;-83
2023/05/11 07:20:03;;;;;;;;;;;11.80;74.10;;;;;;4173399;28;20437;-83
2023/05/11 07:22:04;;;;;;;;;;;11.80;74.10;;;;;;4155554;28;20287;-82
2023/05/11 07:24:06;;;;;;;;;;;11.90;74.10;;;;;;4153395;28;20371;-83
2023/05/11 07:26:12;;;;;;;;;;;11.80;73.90;;;;;;4153373;28;19996;-83
2023/05/11 07:28:36;;;;;;;;;;;11.90;73.80;;;;;;4167957;28;20011;-83
2023/05/11 07:30:57;;;;;;;;;;;11.90;73.80;;;;;;4156548;28;19990;-83
2023/05/11 07:33:17;;;;;;;;;;;11.90;74.30;;;;;;4156853;28;19999;-83
2023/05/11 07:35:38;;;;;;;;;;;11.90;74.10;;;;;;4170359;28;19913;-83
2023/05/11 07:37:58;;;;;;;;;;;11.90;74.30;;;;;;4169576;28;20394;-83
2023/05/11 07:40:19;;;;;;;;;;;12.00;74.50;;;;;;4170195;28;20452;-83
2023/05/11 07:42:40;;;;;;;;;;;12.10;74.80;;;;;;4156180;28;20473;-83
2023/05/11 07:45:00;;;;;;;;;;;12.00;74.80;;;;;;4168767;28;19916;-84
2023/05/11 07:47:01;;;;;;;;;;;12.10;74.60;;;;;;4156689;28;19917;-83
2023/05/11 07:49:02;;;;;;;;;;;12.20;74.70;;;;;;4152223;28;19914;-83
2023/05/11 07:51:06;;;;;;;;;;;12.20;74.50;;;;;;4157266;28;19923;-83
2023/05/11 07:53:10;;;;;;;;;;;12.10;74.30;;;;;;4169935;28;19920;-83
2023/05/11 07:55:30;;;;;;;;;;;12.20;74.10;;;;;;4170135;28;19917;-83
2023/05/11 07:57:54;;;;;;;;;;;12.20;73.90;;;;;;4157897;28;19917;-83
2023/05/11 08:00:15;;;;;;;;;;;12.30;73.90;;;;;;4172576;28;20318;-82
2023/05/11 08:02:35;;;;;;;;;;;12.30;74.10;;;;;;4154004;28;19924;-83
2023/05/11 08:04:56;;;;;;;;;;;12.40;73.70;;;;;;4167176;28;19944;-83
2023/05/11 08:07:17;;;;;;;;;;;12.40;73.60;;;;;;4167947;28;19917;-83
2023/05/11 08:09:38;;;;;;;;;;;12.50;73.70;;;;;;4156023;28;20406;-83
2023/05/11 08:12:00;;;;;;;;;;;12.50;73.70;;;;;;4169915;28;20374;-84
2023/05/11 08:14:21;;;;;;;;;;;12.50;73.50;;;;;;4167689;28;20450;-83
2023/05/11 08:16:42;;;;;;;;;;;12.50;74.10;;;;;;4169005;28;20401;-83
2023/05/11 08:18:43;;;;;;;;;;;12.50;73.70;;;;;;4142141;28;19922;-83
2023/05/11 08:20:43;;;;;;;;;;;12.50;73.30;;;;;;4151940;28;20215;-84
2023/05/11 08:23:04;;;;;;;;;;;12.50;73.20;;;;;;4163888;28;19924;-84
2023/05/11 08:25:25;;;;;;;;;;;12.60;73.40;;;;;;4168491;28;20560;-83
2023/05/11 08:27:25;;;;;;;;;;;12.50;73.70;;;;;;4143905;28;19951;-84
2023/05/11 08:29:46;;;;;;;;;;;12.60;73.50;;;;;;4153778;28;20560;-83
2023/05/11 08:32:06;;;;;;;;;;;12.60;73.60;;;;;;4171145;28;20418;-84
2023/05/11 08:34:27;;;;;;;;;;;12.60;73.50;;;;;;4158701;28;19927;-83
2023/05/11 08:36:48;;;;;;;;;;;12.60;73.30;;;;;;4169602;28;20523;-82
2023/05/11 08:39:11;;;;;;;;;;;12.70;73.40;;;;;;4159808;28;20375;-83
2023/05/11 08:41:32;;;;;;;;;;;12.80;73.70;;;;;;4153939;28;20458;-83
2023/05/11 08:43:53;;;;;;;;;;;12.70;73.30;;;;;;4156895;28;20363;-84
2023/05/11 08:46:18;;;;;;;;;;;12.80;73.20;;;;;;4168027;28;20363;-83
2023/05/11 08:48:21;;;;;;;;;;;12.80;73.10;;;;;;4167049;28;19917;-83
2023/05/11 08:50:28;;;;;;;;;;;12.80;72.90;;;;;;4154318;28;19909;-84
2023/05/11 08:52:49;;;;;;;;;;;12.80;72.90;;;;;;4154434;28;20360;-84
2023/05/11 08:55:02;;;;;;;;;;;12.90;73.00;;;;;;4138299;28;19918;-84
2023/05/11 08:57:24;;;;;;;;;;;12.80;72.90;;;;;;4152693;28;20459;-84
2023/05/11 08:59:45;;;;;;;;;;;12.80;72.80;;;;;;4156278;28;20382;-83
2023/05/11 09:02:09;;;;;;;;;;;12.80;72.90;;;;;;4166438;28;20391;-83
2023/05/11 09:04:30;;;;;;;;;;;12.90;72.90;;;;;;4160880;28;20354;-84
2023/05/11 09:06:51;;;;;;;;;;;12.80;72.90;;;;;;4152275;28;20493;-83
2023/05/11 09:09:12;;;;;;;;;;;12.90;73.00;;;;;;4156495;28;19918;-83
2023/05/11 09:11:33;;;;;;;;;;;12.90;73.30;;;;;;4171119;28;20370;-83
2023/05/11 09:13:34;;;;;;;;;;;12.90;73.30;;;;;;4167974;28;19913;-84
2023/05/11 09:15:35;;;;;;;;;;;12.90;73.30;;;;;;4157480;28;19917;-83
2023/05/11 09:17:55;;;;;;;;;;;12.90;73.00;;;;;;4155028;28;20490;-84
2023/05/11 09:20:23;;;;;;;;;;;13.00;72.80;;;;;;4173229;28;20461;-83
2023/05/11 09:22:44;;;;;;;;;;;12.90;72.80;;;;;;4172552;28;20346;-83
2023/05/11 09:25:05;;;;;;;;;;;12.90;72.80;;;;;;4160105;28;20387;-83
2023/05/11 09:27:07;;;;;;;;;;;12.90;72.80;;;;;;4173286;28;19944;-83
2023/05/11 09:29:10;;;;;;;;;;;13.00;72.30;;;;;;4157111;28;19913;-84
2023/05/11 09:31:11;;;;;;;;;;;13.00;72.30;;;;;;4172255;28;20377;-83
2023/05/11 09:33:32;;;;;;;;;;;13.00;72.40;;;;;;4171391;28;20306;-84
2023/05/11 09:35:52;;;;;;;;;;;13.00;72.40;;;;;;4169671;28;20260;-84
2023/05/11 09:38:14;;;;;;;;;;;13.10;72.50;;;;;;4158301;28;20638;-83
2023/05/11 09:40:38;;;;;;;;;;;13.10;72.50;;;;;;4159715;28;20402;-83
2023/05/11 09:43:00;;;;;;;;;;;13.10;72.70;;;;;;4173180;28;20401;-84
2023/05/11 09:45:34;;;;;;;;;;;13.10;72.80;;;;;;4163429;28;20370;-84
2023/05/11 09:47:55;;;;;;;;;;;13.10;72.50;;;;;;4170736;28;19996;-84
2023/05/11 09:50:16;;;;;;;;;;;13.10;72.10;;;;;;4158677;28;19928;-83
2023/05/11 09:52:17;;;;;;;;;;;13.10;71.90;;;;;;4157659;28;19905;-84
2023/05/11 09:54:19;;;;;;;;;;;13.10;71.80;;;;;;4154881;28;19928;-83
2023/05/11 09:56:20;;;;;;;;;;;13.10;71.60;;;;;;4158668;28;20390;-84
2023/05/11 09:58:25;;;;;;;;;;;13.10;71.40;;;;;;4138707;28;19921;-83
2023/05/11 10:00:55;;;;;;;;;;;13.10;71.30;;;;;;4163934;28;19909;-83
2023/05/11 10:03:16;;;;;;;;;;;13.00;71.30;;;;;;4162035;28;19917;-84
2023/05/11 10:05:36;;;;;;;;;;;13.00;71.40;;;;;;4177297;28;19949;-84
2023/05/11 10:08:00;;;;;;;;;;;13.10;71.70;;;;;;4157953;28;20258;-83
2023/05/11 10:10:20;;;;;;;;;;;13.10;71.80;;;;;;4173397;28;20371;-83
2023/05/11 10:12:41;;;;;;;;;;;13.10;72.00;;;;;;4179472;28;20236;-83
2023/05/11 10:15:11;;;;;;;;;;;13.10;72.30;;;;;;4164028;28;19932;-83
2023/05/11 10:17:32;;;;;;;;;;;13.10;71.90;;;;;;4158885;28;19918;-83
2023/05/11 10:19:54;;;;;;;;;;;13.10;72.30;;;;;;4163368;28;19980;-83
2023/05/11 10:22:16;;;;;;;;;;;13.10;72.20;;;;;;4175881;28;19920;-84
2023/05/11 10:24:38;;;;;;;;;;;13.10;72.10;;;;;;4176242;28;19996;-84
2023/05/11 10:26:59;;;;;;;;;;;13.10;72.10;;;;;;4163497;28;20276;-83
2023/05/11 10:29:00;;;;;;;;;;;13.10;72.20;;;;;;4157966;28;20020;-83
2023/05/11 10:31:02;;;;;;;;;;;13.20;72.40;;;;;;4173663;28;19979;-83
2023/05/11 10:33:05;;;;;;;;;;;13.20;72.30;;;;;;4161710;28;20023;-84
2023/05/11 10:35:26;;;;;;;;;;;13.20;72.10;;;;;;4175480;28;19987;-83
2023/05/11 10:37:47;;;;;;;;;;;13.30;72.30;;;;;;4177161;28;19962;-83
2023/05/11 10:40:08;;;;;;;;;;;13.20;72.00;;;;;;4176051;28;20506;-83
2023/05/11 10:42:15;;;;;;;;;;;13.20;72.20;;;;;;4160161;28;19918;-83
2023/05/11 10:44:50;;;;;;;;;;;13.20;72.10;;;;;;4161627;28;19920;-82
2023/05/11 10:47:20;;;;;;;;;;;13.20;72.10;;;;;;4177455;28;19909;-83
2023/05/11 10:50:19;;;;;;;;;;;13.20;72.50;;;;;;4166331;28;19917;-83
2023/05/11 10:52:29;;;;;;;;;;;13.20;72.20;;;;;;4124082;28;19914;-82
2023/05/11 10:54:38;;;;;;;;;;;13.20;72.30;;;;;;4141885;28;19924;-82
2023/05/11 10:57:10;;;;;;;;;;;13.20;72.40;;;;;;4175419;28;20337;-83
2023/05/11 10:59:40;;;;;;;;;;;13.20;72.60;;;;;;4161617;28;19920;-82
2023/05/11 11:02:02;;;;;;;;;;;13.20;72.60;;;;;;4160102;28;20383;-83
2023/05/11 11:04:23;;;;;;;;;;;13.20;72.60;;;;;;4174125;28;19935;-82
2023/05/11 11:06:43;;;;;;;;;;;13.20;72.70;;;;;;4172585;28;20377;-83
2023/05/11 11:09:06;;;;;;;;;;;13.10;72.70;;;;;;4173029;28;20348;-83
2023/05/11 11:11:27;;;;;;;;;;;13.20;72.80;;;;;;4175610;28;19917;-82
2023/05/11 11:13:27;;;;;;;;;;;13.10;72.90;;;;;;4173511;28;19981;-83
2023/05/11 11:15:54;;;;;;;;;;;13.10;73.70;;;;;;4160359;28;20419;-82
2023/05/11 11:18:25;;;;;;;;;;;13.20;73.10;;;;;;4159631;28;20327;-82
2023/05/11 11:20:50;;;;;;;;;;;13.10;73.10;;;;;;4166596;28;19972;-83
2023/05/11 11:23:30;;;;;;;;;;;13.20;73.30;;;;;;4177756;28;19979;-83
2023/05/11 11:25:52;;;;;;;;;;;13.30;73.70;;;;;;4147914;28;19917;-83
2023/05/11 11:28:13;;;;;;;;;;;13.20;74.20;;;;;;4163000;28;20678;-82
2023/05/11 11:30:33;;;;;;;;;;;13.20;74.20;;;;;;4163965;28;19913;-82
2023/05/11 11:33:14;;;;;;;;;;;13.20;73.90;;;;;;4175282;28;19924;-83
2023/05/11 11:35:41;;;;;;;;;;;13.20;73.80;;;;;;4174870;28;20271;-82
2023/05/11 11:38:02;;;;;;;;;;;13.20;74.10;;;;;;4174793;28;19984;-83
2023/05/11 11:40:34;;;;;;;;;;;13.30;74.20;;;;;;4165592;28;20362;-83
2023/05/11 11:43:10;;;;;;;;;;;13.30;74.10;;;;;;4175360;28;19917;-83
2023/05/11 11:45:31;;;;;;;;;;;13.30;73.90;;;;;;4164084;28;19929;-82
2023/05/11 11:47:32;;;;;;;;;;;13.40;74.10;;;;;;4161544;28;19917;-84
2023/05/11 11:49:53;;;;;;;;;;;13.30;74.30;;;;;;4166037;28;19913;-83
2023/05/11 11:52:29;;;;;;;;;;;13.40;74.80;;;;;;4158826;28;20084;-82
2023/05/11 11:54:40;;;;;;;;;;;13.30;74.70;;;;;;4146419;28;19909;-83
2023/05/11 11:57:00;;;;;;;;;;;13.30;74.80;;;;;;4162110;28;19921;-83
2023/05/11 11:59:22;;;;;;;;;;;13.30;74.40;;;;;;4172292;28;19920;-83
2023/05/11 12:01:43;;;;;;;;;;;13.30;74.30;;;;;;4181648;28;20044;-82
2023/05/11 12:04:03;;;;;;;;;;;13.30;74.10;;;;;;4187700;28;19901;-84
2023/05/11 12:06:29;;;;;;;;;;;13.30;74.20;;;;;;4188048;28;19916;-84
2023/05/11 12:08:46;;;;;;;;;;;13.30;74.30;;;;;;4173123;28;19921;-83
2023/05/11 12:11:06;;;;;;;;;;;13.30;74.40;;;;;;4188746;28;19909;-84
2023/05/11 12:13:28;;;;;;;;;;;13.30;74.60;;;;;;4183290;28;19917;-84
2023/05/11 12:15:48;;;;;;;;;;;13.30;74.60;;;;;;4166329;28;19940;-84
2023/05/11 12:18:19;;;;;;;;;;;13.50;74.70;;;;;;4170556;28;19909;-84
2023/05/11 12:20:39;;;;;;;;;;;13.50;74.70;;;;;;4159492;28;19917;-84
2023/05/11 12:23:00;;;;;;;;;;;13.40;74.50;;;;;;4161267;28;19981;-83
2023/05/11 12:25:21;;;;;;;;;;;13.50;74.60;;;;;;4171043;28;19936;-84
2023/05/11 12:27:45;;;;;;;;;;;13.50;75.10;;;;;;4172995;28;19943;-84
2023/05/11 12:29:49;;;;;;;;;;;13.50;74.70;;;;;;4163142;28;19901;-84
2023/05/11 12:32:02;;;;;;;;;;;13.50;74.90;;;;;;4176340;28;19913;-85
2023/05/11 12:34:17;;;;;;;;;;;13.60;75.30;;;;;;4143094;28;20020;-84
2023/05/11 12:36:38;;;;;;;;;;;13.60;75.10;;;;;;4173745;28;20148;-83
2023/05/11 12:38:59;;;;;;;;;;;13.70;75.40;;;;;;4160181;28;19917;-84
2023/05/11 12:41:21;;;;;;;;;;;13.70;75.90;;;;;;4153361;28;19948;-84
2023/05/11 12:43:42;;;;;;;;;;;13.70;75.80;;;;;;4165289;28;19925;-83
2023/05/11 12:46:02;;;;;;;;;;;13.70;76.00;;;;;;4153773;28;19940;-84
2023/05/11 12:53:14;;;;;;;;;;;13.80;75.70;;;;;;4137239;28;19930;-83
2023/05/11 12:55:34;;;;;;;;;;;13.90;76.50;;;;;;4085740;28;19925;-84
2023/05/11 12:58:09;;;;;;;;;;;14.00;76.70;;;;;;4114643;28;19943;-84
2023/05/11 13:00:30;;;;;;;;;;;14.00;76.60;;;;;;4150262;28;19963;-83
2023/05/11 13:02:55;;;;;;;;;;;14.10;77.70;;;;;;4140335;28;20244;-84
2023/05/11 13:05:15;;;;;;;;;;;14.10;76.50;;;;;;4152098;28;19987;-85
2023/05/11 13:07:36;;;;;;;;;;;14.20;76.60;;;;;;4139592;28;19918;-83
2023/05/11 13:09:58;;;;;;;;;;;14.20;76.70;;;;;;4147721;28;19932;-84
2023/05/11 13:12:23;;;;;;;;;;;14.40;76.40;;;;;;4149753;28;19928;-85
2023/05/11 13:14:48;;;;;;;;;;;14.40;75.70;;;;;;4136718;28;19913;-84
2023/05/11 13:17:08;;;;;;;;;;;14.50;75.60;;;;;;4147810;28;19917;-84
2023/05/11 13:19:09;;;;;;;;;;;14.50;75.70;;;;;;4151316;28;20450;-84